Airfield :
LOGIN :

Register | Disclaimer

   EN    FR    IT 

 










Legend :    VFR   Marginal VFR   IFR   Intensive IFR   Very Intensive IFR
Visi :
Ceiling :
>= 8 km
>= 3000ft
5 to 8 km
1000 to 3000 ft
1500m to 5 km
500 to 1000 ft
800 to 1500m
200 to 500 ft
< 800m
< 200 ft
Symbols :   Thunderstorms  Fog  Heavy snow  Heavy precipitations  Wind > 20 kt
SIGMETs :     Misc.  Thunderstorms  Icing  Turbulence  Mountain Waves  Volcanic Ashes






- Airport Elevation : 622 ft
- IATA code : BRS


EGGD - Bristol Int.

CURRENT METAR :
  • 120320Z AUTO 06007KT 9000 NCD 21/19 Q1014

EXPIRED METARs :
  • 120250Z AUTO 04007KT 9999 NCD 21/19 Q1014
  • 120220Z AUTO 34005KT 9000 NCD 21/19 Q1014
  • 120150Z AUTO 33003KT 7000 NCD 20/19 Q1014
  • 120120Z AUTO 27003KT 7000 NCD 19/18 Q1014
  • 120050Z AUTO 30005KT 9999 NCD 19/18 Q1014

TAF TAF EGGD
Valid from the 12 at 00:00 until the 13 at 00:00 UTC


112256Z 1200/1224 VRB03KT 9999 FEW030
TEMPO 1200/1208 6000
PROB30
TEMPO 1200/1207 4000 BR SHRA BKN004
PROB30
TEMPO 1212/1224 3000 +TSGR
ATIS : +44 1275 473 666



MET'MAP, your aeronautical weather chart ! - Copyright ORBIFLY December 2007 - Disclaimer

ORBIFLY MET'MAP TEAM :

Programming & Development : Alexandra Zaïnal
Concept & original design : Baudouin d'Aumeries
Assistance for programming : Marc-Olivier Méhu
Technical & hardware support : Manuel Goepfert

Contact : metmap@orbifly.com




SOURCES & CREDITS :

   NOAA